createdAt,value
2019-05-26T00:02:52.739Z,6.12
2019-05-26T00:07:57.598Z,5.30
2019-05-26T00:13:02.251Z,5.50
2019-05-26T00:18:07.011Z,5.43
2019-05-26T00:23:12.758Z,5.57
2019-05-26T00:28:17.599Z,5.30
2019-05-26T00:33:22.288Z,5.03
2019-05-26T00:38:27.391Z,5.20
2019-05-26T00:43:32.160Z,6.13
2019-05-26T00:48:36.998Z,6.00
2019-05-26T00:53:41.771Z,6.90
2019-05-26T00:58:46.850Z,5.90
2019-05-26T01:03:51.453Z,5.93
2019-05-26T01:08:56.211Z,6.40
2019-05-26T01:14:00.851Z,6.77
2019-05-26T01:19:05.500Z,6.80
2019-05-26T01:24:10.482Z,7.37
2019-05-26T01:29:15.231Z,6.97
2019-05-26T01:34:20.175Z,6.87
2019-05-26T01:39:25.251Z,6.17
2019-05-26T01:44:29.999Z,6.17
2019-05-26T01:49:34.702Z,6.73
2019-05-26T01:54:40.981Z,7.50
2019-05-26T01:59:45.770Z,7.13
2019-05-26T02:04:50.391Z,4.60
2019-05-26T02:09:55.111Z,4.20
2019-05-26T02:14:59.871Z,5.67
2019-05-26T02:20:05.649Z,4.37
2019-05-26T02:25:11.899Z,3.90
2019-05-26T02:30:16.877Z,3.83
2019-05-26T02:35:21.941Z,4.37
2019-05-26T02:40:26.859Z,5.27
2019-05-26T02:45:31.642Z,5.50
2019-05-26T02:50:36.442Z,11.23
2019-05-26T02:55:41.351Z,5.97
2019-05-26T03:00:47.780Z,6.17
2019-05-26T03:05:53.207Z,4.97
2019-05-26T03:10:59.721Z,7.67
2019-05-26T03:16:05.682Z,8.95
2019-05-26T03:21:11.265Z,9.70
2019-05-26T03:26:17.471Z,8.10
2019-05-26T03:31:22.381Z,6.20
2019-05-26T03:36:27.175Z,4.78
2019-05-26T03:51:39.189Z,6.20
2019-05-26T03:56:43.850Z,4.63
2019-05-26T04:01:48.573Z,4.20
2019-05-26T04:06:53.312Z,3.40
2019-05-26T04:11:57.989Z,3.97
2019-05-26T04:17:02.798Z,4.73
2019-05-26T04:22:07.481Z,5.95
2019-05-26T04:27:12.399Z,7.30
2019-05-26T04:32:17.132Z,7.23
2019-05-26T04:37:21.940Z,8.10
2019-05-26T04:42:26.742Z,6.33
2019-05-26T04:47:31.552Z,7.33
2019-05-26T04:52:36.437Z,7.00
2019-05-26T04:57:41.370Z,7.27
2019-05-26T05:02:46.588Z,7.27
2019-05-26T05:07:51.423Z,6.67
2019-05-26T05:12:56.207Z,8.18
2019-05-26T05:18:00.796Z,8.70
2019-05-26T05:23:05.511Z,8.23
2019-05-26T05:28:11.130Z,10.73
2019-05-26T05:33:15.832Z,9.50
2019-05-26T05:38:20.531Z,8.60
2019-05-26T05:43:25.339Z,9.57
2019-05-26T05:48:30.412Z,16.60
2019-05-26T05:53:35.018Z,28.75
2019-05-26T05:58:39.799Z,24.60
2019-05-26T06:03:44.470Z,27.65
2019-05-26T06:08:49.334Z,21.80
2019-05-26T06:13:54.431Z,32.67
2019-05-26T06:18:59.038Z,20.17
2019-05-26T06:24:03.990Z,13.10
2019-05-26T06:29:09.640Z,7.28
2019-05-26T06:34:14.370Z,16.27
2019-05-26T06:39:19.420Z,10.33
2019-05-26T06:44:24.112Z,12.33
2019-05-26T06:49:29.179Z,13.40
2019-05-26T06:54:34.091Z,14.85
2019-05-26T06:59:38.839Z,15.48
2019-05-26T07:04:43.660Z,20.08
2019-05-26T07:09:48.587Z,13.28
2019-05-26T07:14:53.359Z,11.10
2019-05-26T07:19:58.378Z,17.12
2019-05-26T07:25:03.099Z,13.35
2019-05-26T07:30:09.059Z,15.23
2019-05-26T07:35:13.850Z,14.10
2019-05-26T07:42:09.367Z,14.57
2019-05-26T07:47:02.299Z,11.50
2019-05-26T07:52:07.035Z,16.30
2019-05-26T07:57:11.850Z,12.37
2019-05-26T08:02:16.511Z,16.33
2019-05-26T08:07:23.217Z,16.97
2019-05-26T08:12:30.606Z,11.55
2019-05-26T08:17:34.340Z,16.57
2019-05-26T08:22:39.359Z,14.73
2019-05-26T08:27:44.051Z,15.20
2019-05-26T08:32:48.890Z,21.12
2019-05-26T08:37:56.827Z,17.53
2019-05-26T08:43:01.799Z,23.67
2019-05-26T08:48:06.690Z,29.77
2019-05-26T08:53:11.371Z,28.92
2019-05-26T08:58:16.358Z,27.93
2019-05-26T09:03:21.590Z,32.73
2019-05-26T09:08:26.393Z,34.60
2019-05-26T09:13:31.378Z,24.45
2019-05-26T09:18:36.438Z,28.93
2019-05-26T09:23:41.738Z,22.50
2019-05-26T09:28:46.552Z,37.53
2019-05-26T09:33:52.251Z,20.43
2019-05-26T09:38:57.279Z,19.33
2019-05-26T09:44:02.070Z,15.83
2019-05-26T09:49:06.748Z,14.68
2019-05-26T09:54:12.756Z,16.90
2019-05-26T09:59:17.670Z,15.78
2019-05-26T10:04:22.565Z,18.17
2019-05-26T10:09:27.331Z,17.90
2019-05-26T10:14:31.931Z,15.30
2019-05-26T10:19:36.580Z,13.60
2019-05-26T10:24:41.321Z,15.97
2019-05-26T10:29:46.270Z,16.62
2019-05-26T10:34:51.126Z,14.53
2019-05-26T10:39:56.108Z,9.80
2019-05-26T10:45:01.011Z,7.67
2019-05-26T10:50:06.379Z,6.12
2019-05-26T10:55:11.207Z,6.72
2019-05-26T11:00:18.817Z,7.10
2019-05-26T11:05:23.426Z,5.07
2019-05-26T11:10:28.038Z,6.83
2019-05-26T11:15:32.613Z,7.43
2019-05-26T11:20:37.444Z,5.90
2019-05-26T11:25:42.176Z,4.90
2019-05-26T11:30:46.876Z,7.07
2019-05-26T11:35:52.304Z,16.00
2019-05-26T11:40:57.361Z,16.07
2019-05-26T11:46:02.446Z,10.88
2019-05-26T11:51:07.206Z,14.20
2019-05-26T11:56:12.336Z,11.70
2019-05-26T12:01:16.897Z,15.45
2019-05-26T12:06:21.523Z,21.50
2019-05-26T12:11:26.151Z,15.20
2019-05-26T12:16:30.770Z,19.23
2019-05-26T12:21:35.545Z,16.10
2019-05-26T12:26:40.093Z,17.15
2019-05-26T12:31:44.755Z,16.50
2019-05-26T12:36:49.812Z,11.40
2019-05-26T12:41:54.549Z,13.43
2019-05-26T12:46:59.100Z,12.97
2019-05-26T12:52:04.130Z,14.85
2019-05-26T12:57:09.103Z,17.75
2019-05-26T13:02:14.302Z,22.07
2019-05-26T13:07:19.434Z,21.05
2019-05-26T13:12:24.304Z,13.67
2019-05-26T13:17:28.922Z,11.53
2019-05-26T13:22:33.717Z,18.95
2019-05-26T13:27:38.600Z,11.23
2019-05-26T13:32:43.460Z,12.68
2019-05-26T13:37:48.322Z,12.60
2019-05-26T13:42:53.788Z,14.87
2019-05-26T13:47:58.520Z,12.15
2019-05-26T13:53:03.162Z,12.78
2019-05-26T13:58:07.826Z,14.05
2019-05-26T14:03:12.657Z,12.75
2019-05-26T14:08:17.653Z,12.10
2019-05-26T14:13:22.564Z,12.05
2019-05-26T14:18:28.621Z,13.90
2019-05-26T14:23:33.300Z,10.93
2019-05-26T14:28:38.221Z,18.45
2019-05-26T14:33:43.345Z,8.18
2019-05-26T14:38:48.044Z,8.30
2019-05-26T14:43:52.683Z,7.85
2019-05-26T14:48:57.762Z,7.20
2019-05-26T14:54:02.573Z,7.08
2019-05-26T15:35:59.707Z,11.00
2019-05-26T15:41:04.609Z,9.37
2019-05-26T15:46:24.303Z,8.00
2019-05-26T15:51:16.690Z,9.63
2019-05-26T15:56:21.626Z,9.60
2019-05-26T16:01:26.705Z,11.80
2019-05-26T16:06:31.425Z,12.07
2019-05-26T16:11:36.287Z,13.88
2019-05-26T16:16:42.035Z,12.17
2019-05-26T16:21:47.032Z,12.20
2019-05-26T16:26:52.264Z,11.13
2019-05-26T16:31:56.984Z,10.13
2019-05-26T16:37:01.661Z,12.43
2019-05-26T16:42:06.540Z,10.07
2019-05-26T16:47:11.581Z,9.95
2019-05-26T16:52:16.410Z,7.73
2019-05-26T16:57:21.187Z,8.27
2019-05-26T17:02:26.029Z,6.20
2019-05-26T17:07:30.784Z,5.20
2019-05-26T17:12:36.084Z,5.50
2019-05-26T17:17:41.282Z,4.70
2019-05-26T17:22:46.142Z,5.93
2019-05-26T17:27:50.982Z,4.25
2019-05-26T17:32:55.783Z,5.05
2019-05-26T17:38:00.682Z,4.58
2019-05-26T17:43:05.901Z,4.53
2019-05-26T17:48:10.564Z,5.45
2019-05-26T17:53:15.330Z,3.70
2019-05-26T17:58:20.265Z,4.10
2019-05-26T18:03:25.105Z,4.63
2019-05-26T18:08:30.224Z,4.13
2019-05-26T18:13:34.948Z,4.50
2019-05-26T18:18:39.746Z,5.00
2019-05-26T18:23:44.544Z,5.17
2019-05-26T18:28:50.035Z,4.83
2019-05-26T18:33:54.905Z,5.08
2019-05-26T18:38:59.848Z,5.28
2019-05-26T18:44:04.752Z,5.12
2019-05-26T18:49:09.528Z,5.67
2019-05-26T18:54:14.370Z,4.63
2019-05-26T18:59:19.348Z,5.80
2019-05-26T19:04:24.270Z,5.80
2019-05-26T19:09:29.088Z,5.70
2019-05-26T19:14:33.969Z,4.83
2019-05-26T19:19:38.670Z,5.90
2019-05-26T19:24:43.733Z,5.90
2019-05-26T19:29:48.571Z,4.77
2019-05-26T19:34:53.511Z,5.25
2019-05-26T19:39:58.809Z,5.37
2019-05-26T19:45:04.569Z,8.70
2019-05-26T19:50:09.748Z,8.85
2019-05-26T19:55:14.651Z,6.43
2019-05-26T20:00:19.938Z,12.20
2019-05-26T20:05:25.247Z,8.40
2019-05-26T20:10:30.209Z,6.43
2019-05-26T20:15:35.052Z,8.07
2019-05-26T20:20:39.934Z,8.40
2019-05-26T20:25:44.852Z,7.60
2019-05-26T20:30:49.751Z,6.97
2019-05-26T20:35:54.851Z,8.20
2019-05-26T20:40:59.989Z,7.80
2019-05-26T20:46:05.119Z,10.05
2019-05-26T20:51:10.289Z,7.23
2019-05-26T20:56:14.932Z,8.48
2019-05-26T21:01:19.701Z,7.30
2019-05-26T21:06:25.059Z,7.13
2019-05-26T21:11:29.928Z,7.50
2019-05-26T21:16:34.631Z,7.20
2019-05-26T21:21:39.375Z,7.10
2019-05-26T21:26:44.591Z,7.67
2019-05-26T21:31:49.471Z,6.23
2019-05-26T21:36:54.265Z,7.10
2019-05-26T21:42:00.058Z,6.43
2019-05-26T21:47:05.328Z,5.77
2019-05-26T21:52:10.153Z,6.47
2019-05-26T21:57:14.988Z,7.43
2019-05-26T22:02:19.847Z,8.40
2019-05-26T22:07:24.811Z,6.67
2019-05-26T22:12:29.752Z,7.90
2019-05-26T22:17:34.809Z,7.30
2019-05-26T22:22:39.653Z,7.10
2019-05-26T22:27:44.228Z,7.62
2019-05-26T22:32:49.497Z,7.70
2019-05-26T22:37:54.288Z,5.83
2019-05-26T22:43:00.971Z,6.87
2019-05-26T22:48:05.688Z,6.60
2019-05-26T22:53:10.828Z,6.17
2019-05-26T22:58:15.611Z,6.60
2019-05-26T23:03:20.493Z,6.77
2019-05-26T23:08:25.109Z,7.23
2019-05-26T23:13:30.391Z,6.97
2019-05-26T23:18:35.178Z,7.23
2019-05-26T23:23:39.869Z,6.00
2019-05-26T23:28:44.549Z,6.17
2019-05-26T23:33:49.509Z,6.43
2019-05-26T23:38:55.614Z,6.70
2019-05-26T23:44:01.236Z,5.80
2019-05-26T23:49:06.172Z,7.10
2019-05-26T23:54:11.229Z,6.10
2019-05-26T23:59:15.807Z,7.00
